RKSI/ICN METAR and TAF weather

Enter ICAO airport designator
Station Type Date Time Source
RKSI METAR 2019/09/21 05:00 UTC NOAA

RKSI 210500Z 05009KT 9999 FEW040 OVC110 20/13 Q1018 NOSIG


Station Type Date Time Source
RKSI Decoded METAR 2019/09/21 05:00 UTC NOAA

Incheon International Airport, Korea, South (RKSI) 37-28N 126-27E
Sep 21, 2019 - 01:00 AM EDT / 2019.09.21 0500 UTC
Wind: from the NE (050 degrees) at 10 MPH (9 KT):0
Visibility: greater than 7 mile(s):0
Sky conditions: overcast
Temperature: 68 F (20 C)
Dew Point: 55 F (13 C)
Relative Humidity: 64%
Pressure (altimeter): 30.06 in. Hg (1018 hPa)
ob: RKSI 210500Z 05009KT 9999 FEW040 OVC110 20/13 Q1018 NOSIG
cycle: 5

Station Type Date Time Source
RKSI TAF 2019/09/21 06:06 UTC NOAA

TAF RKSI 210500Z 2106/2212 05010KT 9999 FEW030 BKN110 TN17/2121Z TX21/2206Z
BECMG 2111/2112 11010KT
BECMG 2113/2114 05010KT
BECMG 2118/2119 03015G25KT -RA FEW010 BKN030 OVC080

Example: see airport list